Time;durP1;ratioP1;P1;durP2;ratioP2;P2;SDS_P1;SDS_P2;PMS_P1;PMS_P2;Temp;Humidity;BMP_temperature;BMP_pressure;BME280_temperature;BME280_humidity;BME280_pressure;Samples;Min_cycle;Max_cycle;Signal;HPM_P1;HPM_P2
2023/08/09 00:02:22;;;;;;;1.30;0.80;;;;;;;13.12;65.89;100025.66;5000068;28;20565;-59
2023/08/09 00:04:49;;;;;;;1.80;0.63;;;;;;;13.09;65.78;100030.91;5004265;28;20088;-61
2023/08/09 00:07:15;;;;;;;1.55;0.60;;;;;;;13.06;64.94;100037.00;4984583;28;20038;-60
2023/08/09 00:09:42;;;;;;;1.23;0.45;;;;;;;13.02;66.10;100030.13;4986795;28;20046;-60
2023/08/09 00:12:09;;;;;;;2.25;0.95;;;;;;;13.00;65.62;100037.06;4987603;28;20053;-59
2023/08/09 00:14:36;;;;;;;1.15;0.63;;;;;;;12.98;65.42;100044.88;4983691;28;20058;-59
2023/08/09 00:17:02;;;;;;;1.50;0.60;;;;;;;12.96;65.79;100056.19;4986923;28;20053;-58
2023/08/09 00:19:30;;;;;;;1.25;0.75;;;;;;;12.93;65.13;100051.03;4988302;28;20049;-58
2023/08/09 00:21:56;;;;;;;2.38;0.73;;;;;;;12.88;66.09;100047.63;4984140;28;20531;-58
2023/08/09 00:24:25;;;;;;;3.47;0.88;;;;;;;12.84;66.13;100047.66;4986971;28;20051;-59
2023/08/09 00:26:52;;;;;;;1.63;0.68;;;;;;;12.80;65.34;100039.94;4993528;28;20069;-59
2023/08/09 00:29:20;;;;;;;2.22;0.70;;;;;;;12.77;65.39;100033.03;4999897;28;20057;-59
2023/08/09 00:31:48;;;;;;;2.22;0.70;;;;;;;12.74;65.63;100051.28;4984465;28;20042;-61
2023/08/09 00:34:16;;;;;;;1.42;0.90;;;;;;;12.72;66.84;100050.41;4989292;28;20149;-60
2023/08/09 00:36:44;;;;;;;2.42;0.75;;;;;;;12.69;65.80;100058.25;4984672;28;20058;-59
2023/08/09 00:39:12;;;;;;;2.70;1.02;;;;;;;12.67;66.52;100052.22;4991840;28;20565;-59
2023/08/09 00:41:41;;;;;;;3.15;1.08;;;;;;;12.66;66.47;100053.09;5010102;28;20572;-59
2023/08/09 00:44:08;;;;;;;1.25;0.60;;;;;;;12.65;65.88;100061.75;5004625;28;20053;-59
2023/08/09 00:46:37;;;;;;;1.52;0.68;;;;;;;12.63;66.41;100071.31;5007651;28;20053;-59
2023/08/09 00:49:05;;;;;;;3.97;1.08;;;;;;;12.59;66.60;100073.94;5009031;28;20092;-59
2023/08/09 00:51:33;;;;;;;2.55;0.70;;;;;;;12.58;65.86;100080.03;4999655;28;20125;-60
2023/08/09 00:54:01;;;;;;;2.42;1.10;;;;;;;12.57;66.51;100048.88;5005032;28;20061;-59
2023/08/09 00:56:30;;;;;;;1.95;0.60;;;;;;;12.52;66.19;100046.31;5007826;28;20054;-60
2023/08/09 00:58:58;;;;;;;1.60;0.75;;;;;;;12.51;66.88;100033.34;5006043;28;20033;-59
2023/08/09 01:01:26;;;;;;;1.92;0.93;;;;;;;12.47;66.61;100048.94;5001844;28;20511;-59
2023/08/09 01:03:55;;;;;;;2.67;0.80;;;;;;;12.46;65.58;100073.22;5004268;28;20046;-59
2023/08/09 01:12:14;;;;;;;2.25;1.02;;;;;;;12.42;66.61;100066.31;5056384;27;20393;-59
2023/08/09 01:14:43;;;;;;;2.17;0.70;;;;;;;12.40;66.90;100075.84;5035356;28;20059;-59
2023/08/09 01:17:14;;;;;;;2.20;0.68;;;;;;;12.39;66.74;100076.75;5040711;28;20735;-59
2023/08/09 01:19:45;;;;;;;4.60;0.70;;;;;;;12.38;65.90;100074.16;5042243;28;20134;-57
2023/08/09 01:22:15;;;;;;;1.33;0.60;;;;;;;12.36;66.72;100075.91;5037939;28;20053;-60
2023/08/09 01:24:44;;;;;;;1.13;0.52;;;;;;;12.31;67.04;100069.03;5024090;28;20068;-60
2023/08/09 01:27:10;;;;;;;1.90;0.95;;;;;;;12.30;66.76;100072.50;5041882;28;20162;-60
2023/08/09 01:29:38;;;;;;;1.95;0.80;;;;;;;12.30;66.73;100077.69;5042309;28;20705;-60
2023/08/09 01:32:06;;;;;;;2.63;1.08;;;;;;;12.27;66.50;100066.47;5041894;28;20041;-60
2023/08/09 01:34:35;;;;;;;1.95;0.95;;;;;;;12.24;67.04;100082.06;5043179;28;20049;-59
2023/08/09 01:37:10;;;;;;;2.28;0.70;;;;;;;12.20;66.30;100094.25;5036047;28;20123;-60
2023/08/09 01:39:40;;;;;;;4.30;1.77;;;;;;;12.17;66.35;100091.66;5040240;28;20047;-59
2023/08/09 01:42:08;;;;;;;3.95;0.90;;;;;;;12.14;67.13;100107.25;5038599;28;20444;-59
2023/08/09 01:44:35;;;;;;;2.05;0.80;;;;;;;12.10;66.46;100100.38;5038506;28;20052;-58
2023/08/09 01:47:03;;;;;;;2.83;0.77;;;;;;;12.05;67.35;100088.25;5041505;28;20053;-58
2023/08/09 01:49:30;;;;;;;2.85;0.77;;;;;;;12.03;67.38;100089.16;5042124;28;20049;-59
2023/08/09 01:51:56;;;;;;;1.60;0.63;;;;;;;12.01;66.37;100086.56;5022108;28;20056;-58
2023/08/09 01:54:24;;;;;;;2.85;0.98;;;;;;;12.01;66.84;100068.41;5037331;28;20476;-59
2023/08/09 01:56:50;;;;;;;1.65;0.70;;;;;;;12.02;68.08;100070.13;5028385;28;20064;-60
2023/08/09 01:59:18;;;;;;;1.92;1.05;;;;;;;12.04;67.97;100070.09;5022251;28;20050;-58
2023/08/09 02:01:44;;;;;;;1.90;0.82;;;;;;;12.06;67.57;100083.97;5039496;28;20061;-56
2023/08/09 02:04:11;;;;;;;1.35;0.60;;;;;;;12.10;67.74;100092.59;5049838;28;20144;-59
2023/08/09 02:06:38;;;;;;;2.13;0.75;;;;;;;12.09;67.40;100086.53;5058917;28;20049;-59
2023/08/09 02:09:06;;;;;;;2.85;0.90;;;;;;;12.09;67.27;100083.94;5056493;28;20052;-59
2023/08/09 02:11:33;;;;;;;1.77;0.70;;;;;;;12.08;67.38;100083.09;5058238;28;20044;-59
2023/08/09 02:14:00;;;;;;;3.15;1.17;;;;;;;12.10;66.91;100090.00;5059019;28;20071;-57
2023/08/09 02:16:27;;;;;;;3.80;0.77;;;;;;;12.10;66.74;100084.81;5059257;28;20052;-58
2023/08/09 02:18:54;;;;;;;2.95;0.80;;;;;;;12.09;67.04;100089.13;5059210;28;20136;-59
2023/08/09 02:21:21;;;;;;;3.42;1.00;;;;;;;12.08;67.54;100098.66;5060292;28;20064;-57
2023/08/09 02:23:48;;;;;;;2.30;0.88;;;;;;;12.06;67.07;100100.41;5043244;28;20429;-56
2023/08/09 02:26:15;;;;;;;2.42;0.70;;;;;;;12.04;67.59;100117.69;5052582;28;20485;-59
2023/08/09 02:28:42;;;;;;;2.08;0.88;;;;;;;12.01;67.22;100117.72;5030202;28;20501;-59
2023/08/09 02:31:10;;;;;;;2.60;0.80;;;;;;;11.98;67.63;100122.94;5028861;28;20037;-59
2023/08/09 02:33:37;;;;;;;1.75;0.77;;;;;;;11.93;67.24;100111.72;5042810;28;20055;-60
2023/08/09 02:36:05;;;;;;;2.53;0.90;;;;;;;11.89;67.97;100107.44;5024431;28;20053;-59
2023/08/09 02:38:31;;;;;;;3.33;1.00;;;;;;;11.85;66.96;100111.78;5043840;28;20052;-59
2023/08/09 02:41:00;;;;;;;2.45;0.80;;;;;;;11.82;68.16;100107.47;5039537;28;20525;-59
2023/08/09 02:43:26;;;;;;;1.70;0.63;;;;;;;11.79;68.16;100107.47;5042197;28;20080;-59
2023/08/09 02:45:53;;;;;;;1.77;0.70;;;;;;;11.75;68.17;100110.97;5042217;28;20053;-59
2023/08/09 02:48:20;;;;;;;2.60;0.85;;;;;;;11.73;67.66;100120.50;5045574;28;20136;-59
2023/08/09 02:50:47;;;;;;;2.47;0.95;;;;;;;11.70;68.56;100128.31;5046209;28;20782;-59
2023/08/09 02:53:15;;;;;;;6.30;1.00;;;;;;;11.68;67.47;100132.63;5047230;28;20067;-59
2023/08/09 02:55:42;;;;;;;2.22;0.82;;;;;;;11.65;67.93;100143.91;5041481;28;20053;-56
2023/08/09 02:58:09;;;;;;;4.05;1.15;;;;;;;11.63;68.56;100131.81;5039129;28;20501;-58
2023/08/09 03:00:36;;;;;;;2.00;0.80;;;;;;;11.60;67.89;100131.81;5042978;28;20111;-57
2023/08/09 03:03:04;;;;;;;2.40;0.60;;;;;;;11.55;68.38;100135.31;5046061;28;20044;-58
2023/08/09 03:05:31;;;;;;;4.10;1.08;;;;;;;11.54;67.63;100132.72;5042811;28;20561;-59
2023/08/09 03:07:59;;;;;;;2.72;1.00;;;;;;;11.51;68.89;100128.41;5044559;28;20041;-57
2023/08/09 03:10:26;;;;;;;3.05;1.17;;;;;;;11.50;67.60;100137.06;5043649;28;20549;-58
2023/08/09 03:12:53;;;;;;;4.45;1.10;;;;;;;11.48;67.77;100133.59;5044043;28;20079;-58
2023/08/09 03:15:21;;;;;;;2.08;1.00;;;;;;;11.46;67.82;100135.38;5043760;28;20052;-58
2023/08/09 03:17:48;;;;;;;4.63;0.90;;;;;;;11.44;68.80;100152.66;5045029;28;20607;-56
2023/08/09 03:20:17;;;;;;;2.30;0.77;;;;;;;11.44;68.72;100142.28;5041862;28;20041;-59
2023/08/09 03:22:45;;;;;;;2.58;1.13;;;;;;;11.42;69.01;100144.03;5042958;28;20706;-58
2023/08/09 03:25:12;;;;;;;2.38;1.05;;;;;;;11.40;68.54;100145.75;5046524;28;20052;-58
2023/08/09 03:27:40;;;;;;;3.15;1.30;;;;;;;11.39;68.06;100149.22;5045650;28;20076;-58
2023/08/09 03:30:08;;;;;;;4.60;1.40;;;;;;;11.38;68.66;100152.69;5043058;28;20053;-57
2023/08/09 03:32:36;;;;;;;2.60;1.40;;;;;;;11.36;68.78;100154.41;5046236;28;20095;-58
2023/08/09 03:35:05;;;;;;;3.40;0.90;;;;;;;11.35;68.98;100158.72;5044435;28;20313;-58
2023/08/09 03:37:31;;;;;;;2.25;0.80;;;;;;;11.34;68.84;100161.38;5044157;28;20060;-58
2023/08/09 03:39:58;;;;;;;2.40;1.25;;;;;;;11.32;68.77;100169.16;5042741;28;20036;-58
2023/08/09 03:42:25;;;;;;;3.58;0.90;;;;;;;11.30;69.46;100161.38;5041230;28;20470;-58
2023/08/09 03:44:51;;;;;;;2.25;1.00;;;;;;;11.28;69.19;100170.88;5042357;28;20513;-58
2023/08/09 03:47:18;;;;;;;2.15;1.02;;;;;;;11.26;68.69;100170.03;5042752;28;20103;-58
2023/08/09 03:49:45;;;;;;;2.72;1.13;;;;;;;11.23;69.37;100170.03;5045337;28;20068;-58
2023/08/09 03:52:12;;;;;;;3.00;0.90;;;;;;;11.22;67.89;100172.63;5042996;28;20041;-58
2023/08/09 03:54:38;;;;;;;2.10;1.05;;;;;;;11.19;68.62;100173.50;5042742;28;20045;-59
2023/08/09 03:57:06;;;;;;;2.92;1.00;;;;;;;11.17;68.75;100175.22;5043273;28;20505;-59
2023/08/09 03:59:33;;;;;;;3.88;0.90;;;;;;;11.14;68.43;100170.03;5043098;28;20053;-58
2023/08/09 04:02:00;;;;;;;3.45;0.88;;;;;;;11.10;68.27;100174.38;5043466;28;20049;-58
2023/08/09 04:04:27;;;;;;;2.45;0.68;;;;;;;11.08;69.29;100176.09;5038896;28;20049;-59
2023/08/09 04:06:55;;;;;;;3.55;1.33;;;;;;;11.07;68.44;100181.31;5042104;28;20052;-59
2023/08/09 04:09:21;;;;;;;2.28;0.80;;;;;;;11.04;68.47;100183.03;5041758;28;20048;-59
2023/08/09 04:11:48;;;;;;;2.58;1.05;;;;;;;11.00;69.25;100189.09;5042658;28;20050;-59
2023/08/09 04:14:15;;;;;;;1.92;0.75;;;;;;;10.99;68.86;100182.19;5041315;28;20501;-58
2023/08/09 04:16:41;;;;;;;2.75;1.10;;;;;;;10.97;68.54;100183.06;5040812;28;20048;-58
2023/08/09 04:19:08;;;;;;;2.60;0.82;;;;;;;10.96;68.37;100191.69;5045558;28;20044;-59
2023/08/09 04:21:35;;;;;;;4.30;1.30;;;;;;;10.94;68.58;100191.69;5043949;28;20040;-59
2023/08/09 04:24:02;;;;;;;3.85;1.13;;;;;;;10.92;68.69;100180.50;5047750;28;20045;-60
2023/08/09 04:26:29;;;;;;;3.95;1.05;;;;;;;10.91;68.44;100184.78;5048843;28;20055;-58
2023/08/09 04:28:56;;;;;;;3.05;1.13;;;;;;;10.90;69.33;100184.78;5040472;28;20061;-59
2023/08/09 04:31:23;;;;;;;3.88;0.95;;;;;;;10.88;69.54;100195.16;5038702;28;20036;-59
2023/08/09 04:33:51;;;;;;;3.63;1.02;;;;;;;10.86;68.91;100190.84;5040248;28;20175;-59
2023/08/09 04:36:19;;;;;;;4.78;1.33;;;;;;;10.84;69.06;100184.81;5043548;28;20068;-59
2023/08/09 04:38:45;;;;;;;4.03;0.93;;;;;;;10.80;68.65;100181.34;5040473;28;20036;-60
2023/08/09 04:41:12;;;;;;;3.08;1.20;;;;;;;10.79;68.64;100190.00;5038638;28;20045;-59
2023/08/09 04:43:43;;;;;;;2.85;1.23;;;;;;;10.78;69.42;100198.66;5039829;28;20048;-59
2023/08/09 04:46:11;;;;;;;4.95;1.55;;;;;;;10.77;69.32;100207.25;5046663;28;20600;-59
2023/08/09 04:48:39;;;;;;;3.28;1.13;;;;;;;10.75;69.36;100196.94;5038869;28;20056;-59
2023/08/09 04:51:07;;;;;;;3.45;1.05;;;;;;;10.74;69.59;100192.59;5038854;28;20052;-60
2023/08/09 04:53:33;;;;;;;3.30;1.27;;;;;;;10.75;69.72;100188.28;5041609;28;20077;-60
2023/08/09 04:56:00;;;;;;;4.15;1.35;;;;;;;10.73;68.70;100172.75;5038529;28;20053;-59
2023/08/09 04:58:27;;;;;;;3.67;1.95;;;;;;;10.72;69.71;100183.09;5038346;28;20413;-59
2023/08/09 05:00:55;;;;;;;3.58;1.25;;;;;;;10.72;69.04;100181.38;5038313;28;20041;-59
2023/08/09 05:03:21;;;;;;;4.10;1.60;;;;;;;10.71;70.02;100187.41;5042090;28;20048;-59
2023/08/09 05:05:48;;;;;;;3.72;1.35;;;;;;;10.71;69.14;100190.00;5039224;28;20497;-60
2023/08/09 05:08:15;;;;;;;3.30;1.10;;;;;;;10.72;69.86;100209.88;5044682;28;20053;-59
2023/08/09 05:10:41;;;;;;;3.33;1.40;;;;;;;10.73;69.85;100210.72;5040827;28;20556;-60
2023/08/09 05:13:08;;;;;;;2.97;1.15;;;;;;;10.74;69.14;100212.47;5037615;28;20674;-60
2023/08/09 05:15:35;;;;;;;6.43;2.55;;;;;;;10.74;68.55;100215.06;5043238;28;20606;-60
2023/08/09 05:18:03;;;;;;;4.88;1.40;;;;;;;10.75;69.02;100215.06;5038813;28;20044;-59
2023/08/09 05:20:30;;;;;;;3.63;1.85;;;;;;;10.75;69.05;100212.47;5042130;28;20121;-58
2023/08/09 05:22:57;;;;;;;5.45;2.17;;;;;;;10.77;68.77;100212.44;5038336;28;20057;-59
2023/08/09 05:25:24;;;;;;;4.05;1.23;;;;;;;10.79;69.54;100208.13;5035119;28;20052;-59
2023/08/09 05:27:50;;;;;;;3.03;1.33;;;;;;;10.86;69.00;100211.56;5039747;28;20044;-59
2023/08/09 05:30:20;;;;;;;4.30;1.35;;;;;;;10.94;70.50;100215.03;5039774;28;20056;-58
2023/08/09 05:32:47;;;;;;;3.78;1.13;;;;;;;11.00;70.25;100217.63;5042552;28;20049;-58
2023/08/09 05:35:14;;;;;;;4.60;1.80;;;;;;;11.13;69.68;100212.41;5040485;28;20080;-58
2023/08/09 05:37:41;;;;;;;5.15;1.55;;;;;;;11.28;71.15;100214.94;5042336;28;20045;-58
2023/08/09 05:40:09;;;;;;;3.70;1.52;;;;;;;11.44;71.15;100207.13;5024767;28;20063;-57
2023/08/09 05:42:36;;;;;;;4.00;1.25;;;;;;;11.59;70.92;100211.41;5038547;28;20041;-58
2023/08/09 05:45:04;;;;;;;3.67;1.00;;;;;;;11.73;71.57;100211.34;5020711;28;20049;-57
2023/08/09 05:47:30;;;;;;;4.00;1.45;;;;;;;11.81;70.38;100225.13;5042057;28;20055;-58
2023/08/09 05:49:57;;;;;;;2.60;1.10;;;;;;;11.96;70.54;100226.75;5037239;28;20083;-58
2023/08/09 05:52:24;;;;;;;4.63;1.25;;;;;;;12.16;70.40;100244.00;5039287;28;20045;-57
2023/08/09 05:54:50;;;;;;;3.92;1.98;;;;;;;12.34;71.48;100235.22;5041301;28;20049;-58
2023/08/09 05:57:17;;;;;;;3.55;2.42;;;;;;;12.54;71.29;100236.81;5042042;28;20574;-58
2023/08/09 05:59:43;;;;;;;4.13;1.48;;;;;;;12.77;70.59;100237.50;5037771;28;20045;-57
2023/08/09 06:02:10;;;;;;;4.00;1.50;;;;;;;12.99;70.86;100243.34;5041411;28;20045;-58
2023/08/09 06:04:37;;;;;;;3.13;1.20;;;;;;;13.10;69.81;100231.09;5041552;28;20053;-59
2023/08/09 06:07:04;;;;;;;3.08;1.00;;;;;;;13.11;69.34;100231.97;5039595;28;20052;-58
2023/08/09 06:09:31;;;;;;;3.58;1.30;;;;;;;13.08;69.49;100232.84;5042358;28;20518;-55
2023/08/09 06:11:57;;;;;;;3.42;1.25;;;;;;;13.07;69.21;100232.88;5045807;28;20049;-56
2023/08/09 06:14:24;;;;;;;4.22;1.20;;;;;;;13.06;68.96;100229.41;5047078;28;20048;-58
2023/08/09 06:16:51;;;;;;;2.35;1.02;;;;;;;13.06;68.88;100242.41;5048416;28;20049;-58
2023/08/09 06:19:18;;;;;;;3.03;1.02;;;;;;;13.06;68.89;100244.16;5047767;28;20041;-58
2023/08/09 06:21:44;;;;;;;3.65;2.03;;;;;;;13.07;68.27;100238.94;5047241;28;20664;-58
2023/08/09 06:24:11;;;;;;;2.10;1.10;;;;;;;13.10;69.31;100243.22;5048612;28;20063;-58
2023/08/09 06:26:38;;;;;;;2.67;1.58;;;;;;;13.14;68.73;100257.09;5047704;28;20060;-57
2023/08/09 06:29:05;;;;;;;3.83;1.13;;;;;;;13.19;68.00;100263.09;5030429;28;20055;-58
2023/08/09 06:31:32;;;;;;;3.83;1.25;;;;;;;13.24;68.60;100269.97;5047523;28;20053;-57
2023/08/09 06:33:59;;;;;;;1.95;1.20;;;;;;;13.31;68.41;100270.75;5047070;28;20041;-57
2023/08/09 06:36:25;;;;;;;3.72;1.63;;;;;;;13.58;69.20;100275.72;5043406;28;20049;-58
2023/08/09 06:38:52;;;;;;;2.97;1.40;;;;;;;14.00;69.02;100275.22;5047235;28;20497;-57
2023/08/09 06:41:19;;;;;;;3.13;1.30;;;;;;;14.39;68.82;100272.91;5040635;28;20135;-57
2023/08/09 06:43:46;;;;;;;3.05;1.45;;;;;;;14.77;68.54;100267.16;5046407;28;20678;-57
2023/08/09 06:46:12;;;;;;;4.55;1.65;;;;;;;15.12;68.41;100268.28;5039212;28;20049;-57
2023/08/09 06:48:39;;;;;;;2.78;1.23;;;;;;;15.45;68.22;100272.03;5040143;28;20152;-56
2023/08/09 06:51:06;;;;;;;4.05;1.25;;;;;;;15.73;68.37;100280.19;5040051;28;20515;-57
2023/08/09 06:53:32;;;;;;;3.47;1.58;;;;;;;16.00;67.47;100285.75;5038692;28;20049;-58
2023/08/09 06:55:59;;;;;;;3.08;1.33;;;;;;;16.27;66.59;100290.38;5039540;28;20053;-58
2023/08/09 06:58:26;;;;;;;4.38;1.35;;;;;;;16.58;67.11;100285.31;5036474;28;20468;-58
2023/08/09 07:00:53;;;;;;;3.10;1.20;;;;;;;16.91;65.94;100281.91;5038739;28;20048;-57
2023/08/09 07:03:20;;;;;;;4.00;1.27;;;;;;;17.24;66.08;100285.47;5039236;28;20059;-59
2023/08/09 07:05:47;;;;;;;3.00;1.10;;;;;;;17.61;65.43;100287.09;5039129;28;20102;-57
2023/08/09 07:08:13;;;;;;;2.63;1.15;;;;;;;17.92;64.61;100280.94;5040177;28;20137;-58
2023/08/09 07:10:40;;;;;;;2.35;0.95;;;;;;;18.23;64.46;100280.03;5038719;28;20143;-58
2023/08/09 07:13:07;;;;;;;1.92;0.98;;;;;;;18.53;64.03;100273.00;5042818;28;20517;-58
2023/08/09 07:15:33;;;;;;;1.80;1.05;;;;;;;18.78;63.50;100286.16;5042289;28;20079;-57
2023/08/09 07:18:00;;;;;;;2.30;1.17;;;;;;;19.08;62.17;100282.63;5039774;28;20049;-58
2023/08/09 07:20:27;;;;;;;2.00;0.73;;;;;;;19.37;61.75;100285.97;5039573;28;20124;-58
2023/08/09 07:22:54;;;;;;;1.70;0.70;;;;;;;19.69;61.24;100288.34;5038701;28;20539;-59
2023/08/09 07:25:21;;;;;;;4.00;2.08;;;;;;;20.00;60.33;100287.22;5036454;28;20601;-56
2023/08/09 07:27:49;;;;;;;2.75;0.73;;;;;;;20.32;59.98;100292.97;5036460;28;20045;-57
2023/08/09 07:30:17;;;;;;;2.55;0.50;;;;;;;20.64;59.04;100297.88;5011632;28;20057;-56
2023/08/09 07:32:45;;;;;;;2.08;0.45;;;;;;;20.92;58.59;100291.47;5034527;28;20088;-58
2023/08/09 07:35:13;;;;;;;1.83;0.60;;;;;;;21.18;57.34;100305.31;5013735;28;20040;-57
2023/08/09 07:37:42;;;;;;;1.48;0.60;;;;;;;21.42;57.20;100311.28;5016642;28;20056;-56
2023/08/09 07:40:12;;;;;;;4.60;0.60;;;;;;;21.64;56.68;100314.72;5018286;28;20135;-57
2023/08/09 07:42:40;;;;;;;1.58;0.63;;;;;;;21.86;55.70;100314.66;5037702;28;20716;-56
2023/08/09 07:45:08;;;;;;;1.20;0.70;;;;;;;22.08;55.24;100314.50;5038539;28;20045;-58
2023/08/09 07:47:34;;;;;;;3.08;0.80;;;;;;;22.30;54.56;100318.78;5038747;28;20049;-57
2023/08/09 07:50:01;;;;;;;2.35;0.43;;;;;;;22.53;54.59;100327.34;5039916;28;20087;-58
2023/08/09 07:52:29;;;;;;;3.75;1.30;;;;;;;22.77;53.30;100321.84;5039978;28;20059;-58
2023/08/09 07:54:57;;;;;;;4.18;1.00;;;;;;;22.99;53.30;100315.47;5031749;28;20063;-58
2023/08/09 07:57:24;;;;;;;1.88;0.57;;;;;;;23.26;52.35;100316.78;5035822;28;20044;-57
2023/08/09 07:59:50;;;;;;;1.35;0.73;;;;;;;23.51;52.13;100316.41;5038489;28;20068;-58
2023/08/09 08:02:18;;;;;;;1.67;0.77;;;;;;;23.79;52.00;100320.19;5038908;28;20128;-57
2023/08/09 08:04:45;;;;;;;0.95;0.68;;;;;;;24.02;51.51;100320.72;5039216;28;20048;-57
2023/08/09 08:07:13;;;;;;;3.60;0.60;;;;;;;24.22;50.39;100327.56;5039830;28;20048;-58
2023/08/09 08:09:41;;;;;;;2.03;0.52;;;;;;;24.45;50.06;100321.94;5043067;28;20059;-56
2023/08/09 08:12:09;;;;;;;3.90;0.82;;;;;;;24.66;49.76;100325.16;5044145;28;20087;-58
2023/08/09 08:14:49;;;;;;;2.53;0.60;;;;;;;24.93;49.09;100321.88;5046487;28;20044;-57
2023/08/09 08:17:15;;;;;;;4.35;1.83;;;;;;;25.20;48.17;100312.34;5046438;28;20106;-57
2023/08/09 08:19:42;;;;;;;3.80;2.30;;;;;;;25.38;48.03;100315.69;5044523;28;20092;-58
2023/08/09 08:22:09;;;;;;;3.28;2.10;;;;;;;25.57;47.80;100331.31;5041061;28;20041;-57
2023/08/09 08:24:36;;;;;;;7.53;4.28;;;;;;;25.71;47.44;100329.63;5042730;28;20045;-58
2023/08/09 08:27:02;;;;;;;5.68;4.28;;;;;;;25.83;47.23;100333.34;5037478;28;20560;-58
2023/08/09 08:29:29;;;;;;;3.42;1.92;;;;;;;25.97;47.20;100343.06;5033513;28;20063;-58
2023/08/09 08:31:57;;;;;;;2.40;1.75;;;;;;;26.08;46.19;100340.59;5032052;28;20052;-58
2023/08/09 08:34:31;;;;;;;3.17;1.60;;;;;;;26.25;46.16;100338.66;5037383;28;20079;-58
2023/08/09 08:36:59;;;;;;;2.15;1.42;;;;;;;26.41;45.25;100343.84;5041651;28;20132;-58
2023/08/09 08:39:29;;;;;;;1.70;1.17;;;;;;;26.54;45.44;100339.44;5034447;28;20041;-58
2023/08/09 08:41:56;;;;;;;3.47;1.75;;;;;;;26.62;45.06;100338.94;5036896;28;20048;-58
2023/08/09 08:44:25;;;;;;;3.10;1.00;;;;;;;26.73;45.15;100334.69;5040312;28;20044;-59
2023/08/09 08:46:51;;;;;;;2.08;1.00;;;;;;;26.89;44.75;100340.72;5042416;28;20759;-59
2023/08/09 08:49:23;;;;;;;2.17;1.20;;;;;;;27.07;44.05;100346.63;5035566;28;20044;-58
2023/08/09 08:51:54;;;;;;;1.33;0.80;;;;;;;27.20;44.48;100354.59;5019520;28;20045;-59
2023/08/09 08:54:22;;;;;;;1.55;0.70;;;;;;;27.35;44.02;100351.81;5035836;28;20442;-59
2023/08/09 08:56:49;;;;;;;2.35;0.90;;;;;;;27.53;44.11;100351.53;5035033;28;20072;-55
2023/08/09 08:59:16;;;;;;;4.55;1.90;;;;;;;27.68;43.85;100362.91;5034961;28;20049;-58
2023/08/09 09:01:43;;;;;;;2.63;1.00;;;;;;;27.83;43.09;100353.03;5034061;28;20068;-57
2023/08/09 09:04:10;;;;;;;1.90;0.90;;;;;;;27.94;43.79;100358.44;5034390;28;20052;-58
2023/08/09 09:06:37;;;;;;;2.25;1.05;;;;;;;27.97;42.87;100342.22;5036292;28;20076;-59
2023/08/09 09:09:13;;;;;;;4.00;1.08;;;;;;;28.00;42.49;100353.63;5038892;28;20045;-59
2023/08/09 09:11:43;;;;;;;3.55;1.17;;;;;;;28.10;43.02;100347.50;5019085;28;20049;-60
2023/08/09 09:14:11;;;;;;;2.72;1.35;;;;;;;28.22;43.65;100351.09;5001977;28;20041;-59
2023/08/09 09:16:38;;;;;;;1.60;0.82;;;;;;;28.33;43.19;100357.47;5038054;28;20408;-59
2023/08/09 09:19:06;;;;;;;4.63;1.30;;;;;;;28.41;42.33;100355.13;5015603;28;20532;-59
2023/08/09 09:21:34;;;;;;;0.98;0.60;;;;;;;28.51;43.17;100357.94;5032639;28;20045;-60
2023/08/09 09:24:05;;;;;;;1.63;0.70;;;;;;;28.56;41.46;100363.78;5035872;28;20091;-60
2023/08/09 09:26:32;;;;;;;1.23;0.93;;;;;;;28.61;41.99;100363.44;5042850;28;20230;-59
2023/08/09 09:28:58;;;;;;;1.10;0.77;;;;;;;28.66;41.63;100352.41;5043447;28;20666;-60
2023/08/09 09:31:39;;;;;;;2.88;1.00;;;;;;;28.78;42.16;100356.00;5040220;28;20053;-60
2023/08/09 09:34:09;;;;;;;2.20;1.08;;;;;;;28.82;41.57;100360.13;5043456;28;20041;-59
2023/08/09 09:36:38;;;;;;;2.55;1.00;;;;;;;28.86;41.15;100366.91;5040938;28;20157;-60
2023/08/09 09:39:10;;;;;;;1.15;0.98;;;;;;;28.89;40.98;100363.16;5027612;28;21565;-60
2023/08/09 09:41:38;;;;;;;5.80;1.17;;;;;;;28.92;41.93;100363.84;5044798;28;21178;-60
2023/08/09 09:44:05;;;;;;;1.52;1.42;;;;;;;28.98;40.70;100367.84;5047947;28;20481;-59
2023/08/09 09:46:31;;;;;;;1.42;0.73;;;;;;;29.01;40.62;100366.75;5042854;28;20056;-59
2023/08/09 09:49:05;;;;;;;1.58;0.80;;;;;;;29.05;40.80;100362.91;5049398;28;20215;-59
2023/08/09 09:51:33;;;;;;;1.90;1.25;;;;;;;29.05;40.51;100373.56;5041445;28;20056;-59
2023/08/09 09:54:00;;;;;;;1.50;1.17;;;;;;;29.04;40.56;100371.88;5023346;28;20053;-59
2023/08/09 09:56:27;;;;;;;4.05;0.93;;;;;;;28.95;39.24;100365.41;5042232;28;20049;-60
2023/08/09 09:58:54;;;;;;;2.80;0.98;;;;;;;28.82;39.91;100376.13;5039228;28;20045;-59
2023/08/09 10:01:24;;;;;;;2.95;1.30;;;;;;;28.75;39.74;100383.72;5044878;28;20060;-60
2023/08/09 10:04:00;;;;;;;1.80;1.35;;;;;;;28.70;40.93;100380.53;5045411;28;20158;-59
2023/08/09 10:06:29;;;;;;;;;;;;;;;28.70;41.30;100377.88;5040288;28;20049;-59
2023/08/09 10:08:59;;;;;;;1.42;0.95;;;;;;;28.74;40.84;100366.88;5045542;28;19921;-60
2023/08/09 10:11:28;;;;;;;1.77;1.10;;;;;;;28.80;41.16;100364.75;5043961;28;20063;-60
2023/08/09 10:13:57;;;;;;;;;;;;;;;28.85;42.08;100367.91;5046222;28;20076;-59
2023/08/09 10:16:27;;;;;;;1.10;0.65;;;;;;;29.00;40.93;100371.25;5042157;28;19944;-60
2023/08/09 10:19:00;;;;;;;1.38;0.85;;;;;;;29.08;40.34;100352.84;5042043;28;20056;-59
2023/08/09 10:21:27;;;;;;;2.60;0.98;;;;;;;29.15;40.90;100355.91;5025135;28;20488;-60
2023/08/09 10:26:32;;;;;;;7.18;1.05;;;;;;;29.19;39.76;100362.69;5056610;27;20399;-59
2023/08/09 10:29:10;;;;;;;1.98;0.93;;;;;;;29.24;40.76;100363.19;5003562;28;20046;-60
2023/08/09 10:32:02;;;;;;;2.70;1.73;;;;;;;29.39;41.02;100362.97;5021594;28;20049;-57
2023/08/09 10:34:40;;;;;;;2.38;1.27;;;;;;;29.55;40.21;100359.97;5019013;28;20092;-59
2023/08/09 10:37:22;;;;;;;12.23;2.88;;;;;;;29.66;40.87;100367.16;5019230;28;20479;-58
2023/08/09 10:40:12;;;;;;;3.72;1.60;;;;;;;29.73;38.84;100363.03;5017054;28;20069;-60
2023/08/09 10:42:39;;;;;;;2.17;1.45;;;;;;;29.67;39.29;100366.16;5016755;28;20168;-59
2023/08/09 10:45:08;;;;;;;2.63;1.70;;;;;;;29.68;39.98;100364.34;5023248;28;20045;-59
2023/08/09 10:47:34;;;;;;;4.80;1.33;;;;;;;29.84;39.96;100369.31;5023364;28;20053;-59
2023/08/09 10:50:06;;;;;;;1.75;1.20;;;;;;;30.05;40.33;100365.91;5020070;28;20045;-59
2023/08/09 10:52:37;;;;;;;2.10;1.25;;;;;;;30.17;40.10;100364.94;5021897;28;20085;-59
2023/08/09 10:55:24;;;;;;;2.65;1.83;;;;;;;30.17;39.13;100370.28;5035933;28;20462;-60
2023/08/09 10:57:52;;;;;;;3.55;1.13;;;;;;;30.13;39.27;100379.47;5023132;28;20037;-59
2023/08/09 11:00:21;;;;;;;2.17;1.60;;;;;;;30.03;38.56;100376.72;5013474;28;20061;-60
2023/08/09 11:02:51;;;;;;;5.13;1.45;;;;;;;29.97;38.95;100375.38;4998967;28;20058;-60
2023/08/09 11:05:19;;;;;;;2.35;1.58;;;;;;;29.95;38.37;100381.81;4979206;28;20046;-58
2023/08/09 11:07:47;;;;;;;3.22;1.92;;;;;;;29.84;39.02;100379.97;4983795;28;20064;-59
2023/08/09 11:10:15;;;;;;;2.20;1.60;;;;;;;29.78;38.75;100375.16;4978238;28;20062;-59
2023/08/09 11:12:44;;;;;;;2.35;1.48;;;;;;;29.71;38.57;100380.97;4982457;28;20051;-59
2023/08/09 11:15:11;;;;;;;2.30;1.90;;;;;;;29.60;38.82;100383.63;4981903;28;20042;-59
2023/08/09 11:17:54;;;;;;;5.07;1.63;;;;;;;29.56;39.12;100377.69;4986720;28;20046;-59
2023/08/09 11:20:20;;;;;;;2.80;1.40;;;;;;;29.79;39.65;100377.69;4979298;28;20050;-59
2023/08/09 11:22:57;;;;;;;3.72;1.27;;;;;;;30.01;39.01;100382.16;4978990;28;20053;-59
2023/08/09 11:25:25;;;;;;;3.25;1.40;;;;;;;30.14;38.95;100389.22;4977042;28;20074;-59
2023/08/09 11:27:53;;;;;;;2.20;1.88;;;;;;;30.13;38.55;100376.81;4979993;28;20495;-59
2023/08/09 11:30:21;;;;;;;3.45;1.58;;;;;;;30.00;38.59;100385.81;4982602;28;20069;-58
2023/08/09 11:32:59;;;;;;;3.72;1.48;;;;;;;29.85;38.51;100381.72;4971923;28;20050;-59
2023/08/09 11:35:39;;;;;;;3.72;1.33;;;;;;;29.75;39.06;100371.75;4972071;28;20054;-59
2023/08/09 11:38:11;;;;;;;2.28;1.73;;;;;;;29.76;39.67;100373.44;4958981;28;20047;-58
2023/08/09 11:40:40;;;;;;;2.60;1.15;;;;;;;29.89;39.36;100378.66;4963731;28;20055;-60